sensor_id;sensor_type;location;lat;lon;timestamp;P1;durP1;ratioP1;P2;durP2;ratioP2
73321;SDS011;61549;37.044;22.128;2022-11-21T00:00:55;29.27;;;4.53;;
73321;SDS011;61549;37.044;22.128;2022-11-21T00:03:22;24.65;;;3.88;;
73321;SDS011;61549;37.044;22.128;2022-11-21T00:05:48;31.40;;;4.22;;
73321;SDS011;61549;37.044;22.128;2022-11-21T00:08:15;16.98;;;3.63;;
73321;SDS011;61549;37.044;22.128;2022-11-21T00:10:43;19.50;;;4.25;;
73321;SDS011;61549;37.044;22.128;2022-11-21T00:13:13;23.45;;;4.05;;
73321;SDS011;61549;37.044;22.128;2022-11-21T00:15:41;23.50;;;6.93;;
73321;SDS011;61549;37.044;22.128;2022-11-21T00:18:09;25.90;;;4.63;;
73321;SDS011;61549;37.044;22.128;2022-11-21T00:20:39;21.25;;;3.63;;
73321;SDS011;61549;37.044;22.128;2022-11-21T00:23:05;25.95;;;3.72;;
73321;SDS011;61549;37.044;22.128;2022-11-21T00:25:32;21.60;;;3.47;;
73321;SDS011;61549;37.044;22.128;2022-11-21T00:27:58;19.17;;;3.30;;
73321;SDS011;61549;37.044;22.128;2022-11-21T00:30:24;24.27;;;3.60;;
73321;SDS011;61549;37.044;22.128;2022-11-21T00:32:51;25.10;;;3.55;;
73321;SDS011;61549;37.044;22.128;2022-11-21T00:35:17;14.68;;;2.92;;
73321;SDS011;61549;37.044;22.128;2022-11-21T00:37:43;19.10;;;3.50;;
73321;SDS011;61549;37.044;22.128;2022-11-21T00:40:09;21.20;;;3.65;;
73321;SDS011;61549;37.044;22.128;2022-11-21T00:42:35;19.55;;;3.10;;
73321;SDS011;61549;37.044;22.128;2022-11-21T00:45:02;18.77;;;2.80;;
73321;SDS011;61549;37.044;22.128;2022-11-21T00:47:28;20.55;;;3.60;;
73321;SDS011;61549;37.044;22.128;2022-11-21T00:49:54;21.90;;;3.45;;
73321;SDS011;61549;37.044;22.128;2022-11-21T00:52:20;20.90;;;3.97;;
73321;SDS011;61549;37.044;22.128;2022-11-21T00:54:46;19.02;;;3.47;;
73321;SDS011;61549;37.044;22.128;2022-11-21T00:57:11;20.98;;;3.15;;
73321;SDS011;61549;37.044;22.128;2022-11-21T00:59:37;20.80;;;2.95;;
73321;SDS011;61549;37.044;22.128;2022-11-21T01:02:03;20.02;;;3.10;;
73321;SDS011;61549;37.044;22.128;2022-11-21T01:04:33;18.33;;;3.10;;
73321;SDS011;61549;37.044;22.128;2022-11-21T01:06:59;20.65;;;3.25;;
73321;SDS011;61549;37.044;22.128;2022-11-21T01:09:25;14.75;;;3.17;;
73321;SDS011;61549;37.044;22.128;2022-11-21T01:11:52;18.48;;;3.25;;
73321;SDS011;61549;37.044;22.128;2022-11-21T01:14:19;16.77;;;2.88;;
73321;SDS011;61549;37.044;22.128;2022-11-21T01:16:44;15.02;;;2.90;;
73321;SDS011;61549;37.044;22.128;2022-11-21T01:19:10;16.65;;;3.05;;
73321;SDS011;61549;37.044;22.128;2022-11-21T01:21:36;17.27;;;2.97;;
73321;SDS011;61549;37.044;22.128;2022-11-21T01:24:02;20.10;;;3.03;;
73321;SDS011;61549;37.044;22.128;2022-11-21T01:26:29;19.63;;;3.28;;
73321;SDS011;61549;37.044;22.128;2022-11-21T01:28:57;20.85;;;3.15;;
73321;SDS011;61549;37.044;22.128;2022-11-21T01:31:24;16.30;;;2.90;;
73321;SDS011;61549;37.044;22.128;2022-11-21T01:33:51;21.13;;;3.70;;
73321;SDS011;61549;37.044;22.128;2022-11-21T01:36:19;18.15;;;3.22;;
73321;SDS011;61549;37.044;22.128;2022-11-21T01:38:50;24.90;;;3.55;;
73321;SDS011;61549;37.044;22.128;2022-11-21T01:41:18;21.63;;;2.90;;
73321;SDS011;61549;37.044;22.128;2022-11-21T01:43:49;24.13;;;3.55;;
73321;SDS011;61549;37.044;22.128;2022-11-21T01:46:17;20.55;;;3.30;;
73321;SDS011;61549;37.044;22.128;2022-11-21T01:51:36;17.52;;;2.53;;
73321;SDS011;61549;37.044;22.128;2022-11-21T01:54:08;22.08;;;3.20;;
73321;SDS011;61549;37.044;22.128;2022-11-21T01:59:27;11.65;;;2.42;;
73321;SDS011;61549;37.044;22.128;2022-11-21T02:01:57;13.25;;;2.17;;
73321;SDS011;61549;37.044;22.128;2022-11-21T02:04:26;12.82;;;2.50;;
73321;SDS011;61549;37.044;22.128;2022-11-21T02:06:55;20.48;;;4.22;;
73321;SDS011;61549;37.044;22.128;2022-11-21T02:09:22;22.90;;;12.07;;
73321;SDS011;61549;37.044;22.128;2022-11-21T02:11:50;36.35;;;19.80;;
73321;SDS011;61549;37.044;22.128;2022-11-21T02:14:26;49.83;;;30.23;;
73321;SDS011;61549;37.044;22.128;2022-11-21T02:16:53;56.70;;;34.17;;
73321;SDS011;61549;37.044;22.128;2022-11-21T02:25:02;48.97;;;32.92;;
73321;SDS011;61549;37.044;22.128;2022-11-21T02:27:33;53.88;;;35.30;;
73321;SDS011;61549;37.044;22.128;2022-11-21T02:30:03;57.15;;;36.53;;
73321;SDS011;61549;37.044;22.128;2022-11-21T02:32:32;55.30;;;36.25;;
73321;SDS011;61549;37.044;22.128;2022-11-21T02:35:00;63.13;;;37.63;;
73321;SDS011;61549;37.044;22.128;2022-11-21T02:37:26;58.15;;;36.50;;
73321;SDS011;61549;37.044;22.128;2022-11-21T02:39:51;61.25;;;35.08;;
73321;SDS011;61549;37.044;22.128;2022-11-21T02:42:30;54.60;;;33.63;;
73321;SDS011;61549;37.044;22.128;2022-11-21T02:47:38;47.67;;;29.50;;
73321;SDS011;61549;37.044;22.128;2022-11-21T02:50:13;40.30;;;23.48;;
73321;SDS011;61549;37.044;22.128;2022-11-21T02:52:48;33.13;;;17.75;;
73321;SDS011;61549;37.044;22.128;2022-11-21T02:55:14;34.53;;;19.83;;
73321;SDS011;61549;37.044;22.128;2022-11-21T02:57:40;38.70;;;20.90;;
73321;SDS011;61549;37.044;22.128;2022-11-21T03:00:07;32.42;;;19.40;;
73321;SDS011;61549;37.044;22.128;2022-11-21T03:02:35;28.67;;;18.23;;
73321;SDS011;61549;37.044;22.128;2022-11-21T03:05:01;29.42;;;16.35;;
73321;SDS011;61549;37.044;22.128;2022-11-21T03:07:29;26.13;;;15.73;;
73321;SDS011;61549;37.044;22.128;2022-11-21T03:09:55;30.48;;;15.27;;
73321;SDS011;61549;37.044;22.128;2022-11-21T03:12:21;30.52;;;15.95;;
73321;SDS011;61549;37.044;22.128;2022-11-21T03:14:47;23.17;;;13.32;;
73321;SDS011;61549;37.044;22.128;2022-11-21T03:17:13;27.95;;;15.07;;
73321;SDS011;61549;37.044;22.128;2022-11-21T03:19:39;20.30;;;12.50;;
73321;SDS011;61549;37.044;22.128;2022-11-21T03:22:05;20.40;;;11.88;;
73321;SDS011;61549;37.044;22.128;2022-11-21T03:24:30;19.70;;;10.95;;
73321;SDS011;61549;37.044;22.128;2022-11-21T03:26:56;19.77;;;9.20;;
73321;SDS011;61549;37.044;22.128;2022-11-21T03:29:22;16.48;;;8.68;;
73321;SDS011;61549;37.044;22.128;2022-11-21T03:31:48;19.48;;;7.82;;
73321;SDS011;61549;37.044;22.128;2022-11-21T03:34:14;17.35;;;6.63;;
73321;SDS011;61549;37.044;22.128;2022-11-21T03:36:40;12.45;;;5.70;;
73321;SDS011;61549;37.044;22.128;2022-11-21T03:39:06;12.63;;;5.60;;
73321;SDS011;61549;37.044;22.128;2022-11-21T03:41:32;13.55;;;4.40;;
73321;SDS011;61549;37.044;22.128;2022-11-21T03:44:02;16.38;;;4.20;;
73321;SDS011;61549;37.044;22.128;2022-11-21T03:46:33;9.18;;;3.13;;
73321;SDS011;61549;37.044;22.128;2022-11-21T03:49:00;8.90;;;3.50;;
73321;SDS011;61549;37.044;22.128;2022-11-21T03:51:26;12.88;;;3.53;;
73321;SDS011;61549;37.044;22.128;2022-11-21T03:53:53;7.28;;;2.95;;
73321;SDS011;61549;37.044;22.128;2022-11-21T03:56:19;15.57;;;3.00;;
73321;SDS011;61549;37.044;22.128;2022-11-21T03:58:45;9.60;;;2.58;;
73321;SDS011;61549;37.044;22.128;2022-11-21T04:01:17;12.60;;;2.70;;
73321;SDS011;61549;37.044;22.128;2022-11-21T04:03:46;16.48;;;2.53;;
73321;SDS011;61549;37.044;22.128;2022-11-21T04:06:13;13.40;;;2.63;;
73321;SDS011;61549;37.044;22.128;2022-11-21T04:08:40;14.38;;;2.58;;
73321;SDS011;61549;37.044;22.128;2022-11-21T04:11:07;17.38;;;2.72;;
73321;SDS011;61549;37.044;22.128;2022-11-21T04:13:33;14.05;;;2.42;;
73321;SDS011;61549;37.044;22.128;2022-11-21T04:15:59;14.35;;;2.67;;
73321;SDS011;61549;37.044;22.128;2022-11-21T04:18:25;12.50;;;2.30;;
73321;SDS011;61549;37.044;22.128;2022-11-21T04:21:04;11.23;;;2.22;;
73321;SDS011;61549;37.044;22.128;2022-11-21T04:23:33;10.18;;;2.35;;
73321;SDS011;61549;37.044;22.128;2022-11-21T04:25:59;12.00;;;3.28;;
73321;SDS011;61549;37.044;22.128;2022-11-21T04:28:25;18.40;;;7.40;;
73321;SDS011;61549;37.044;22.128;2022-11-21T04:30:51;23.77;;;9.53;;
73321;SDS011;61549;37.044;22.128;2022-11-21T04:33:17;19.60;;;8.57;;
73321;SDS011;61549;37.044;22.128;2022-11-21T04:35:44;17.92;;;9.27;;
73321;SDS011;61549;37.044;22.128;2022-11-21T04:38:11;21.42;;;11.60;;
73321;SDS011;61549;37.044;22.128;2022-11-21T04:40:37;26.38;;;13.75;;
73321;SDS011;61549;37.044;22.128;2022-11-21T04:43:03;21.58;;;11.93;;
73321;SDS011;61549;37.044;22.128;2022-11-21T04:45:29;23.85;;;11.15;;
73321;SDS011;61549;37.044;22.128;2022-11-21T04:47:55;22.45;;;12.38;;
73321;SDS011;61549;37.044;22.128;2022-11-21T04:50:22;22.73;;;11.45;;
73321;SDS011;61549;37.044;22.128;2022-11-21T04:52:52;19.35;;;11.07;;
73321;SDS011;61549;37.044;22.128;2022-11-21T04:55:21;21.23;;;11.57;;
73321;SDS011;61549;37.044;22.128;2022-11-21T04:57:51;22.60;;;11.07;;
73321;SDS011;61549;37.044;22.128;2022-11-21T05:00:17;20.80;;;10.80;;
73321;SDS011;61549;37.044;22.128;2022-11-21T05:02:44;19.85;;;10.93;;
73321;SDS011;61549;37.044;22.128;2022-11-21T05:05:10;21.02;;;10.90;;
73321;SDS011;61549;37.044;22.128;2022-11-21T05:07:36;18.00;;;10.20;;
73321;SDS011;61549;37.044;22.128;2022-11-21T05:10:03;19.75;;;9.98;;
73321;SDS011;61549;37.044;22.128;2022-11-21T05:12:30;21.88;;;10.13;;
73321;SDS011;61549;37.044;22.128;2022-11-21T05:15:14;20.17;;;9.60;;
73321;SDS011;61549;37.044;22.128;2022-11-21T05:17:40;19.90;;;10.10;;
73321;SDS011;61549;37.044;22.128;2022-11-21T05:20:06;21.92;;;10.68;;
73321;SDS011;61549;37.044;22.128;2022-11-21T05:22:32;19.25;;;10.00;;
73321;SDS011;61549;37.044;22.128;2022-11-21T05:24:58;20.90;;;10.00;;
73321;SDS011;61549;37.044;22.128;2022-11-21T05:27:24;20.60;;;10.43;;
73321;SDS011;61549;37.044;22.128;2022-11-21T05:29:50;22.45;;;10.23;;
73321;SDS011;61549;37.044;22.128;2022-11-21T05:32:16;15.35;;;9.00;;
73321;SDS011;61549;37.044;22.128;2022-11-21T05:34:41;18.17;;;8.68;;
73321;SDS011;61549;37.044;22.128;2022-11-21T05:37:07;16.35;;;7.70;;
73321;SDS011;61549;37.044;22.128;2022-11-21T05:39:33;14.77;;;6.32;;
73321;SDS011;61549;37.044;22.128;2022-11-21T05:41:59;15.55;;;7.30;;
73321;SDS011;61549;37.044;22.128;2022-11-21T05:44:25;17.77;;;7.05;;
73321;SDS011;61549;37.044;22.128;2022-11-21T05:46:50;16.00;;;8.18;;
73321;SDS011;61549;37.044;22.128;2022-11-21T05:49:16;16.52;;;8.88;;
73321;SDS011;61549;37.044;22.128;2022-11-21T05:51:42;16.73;;;9.98;;
73321;SDS011;61549;37.044;22.128;2022-11-21T05:54:11;18.80;;;9.30;;
73321;SDS011;61549;37.044;22.128;2022-11-21T05:56:38;19.58;;;10.50;;
73321;SDS011;61549;37.044;22.128;2022-11-21T05:59:04;15.75;;;9.65;;
73321;SDS011;61549;37.044;22.128;2022-11-21T06:01:30;16.65;;;9.65;;
73321;SDS011;61549;37.044;22.128;2022-11-21T06:04:14;17.50;;;9.95;;
73321;SDS011;61549;37.044;22.128;2022-11-21T06:06:40;17.02;;;9.43;;
73321;SDS011;61549;37.044;22.128;2022-11-21T06:09:06;14.77;;;7.53;;
73321;SDS011;61549;37.044;22.128;2022-11-21T06:11:32;12.52;;;6.85;;
73321;SDS011;61549;37.044;22.128;2022-11-21T06:13:58;10.35;;;5.63;;
73321;SDS011;61549;37.044;22.128;2022-11-21T06:16:24;12.00;;;5.35;;
73321;SDS011;61549;37.044;22.128;2022-11-21T06:18:50;13.40;;;5.43;;
73321;SDS011;61549;37.044;22.128;2022-11-21T06:21:18;9.48;;;4.57;;
73321;SDS011;61549;37.044;22.128;2022-11-21T06:23:45;11.13;;;4.13;;
73321;SDS011;61549;37.044;22.128;2022-11-21T06:26:12;10.95;;;4.43;;
73321;SDS011;61549;37.044;22.128;2022-11-21T06:28:40;9.15;;;4.15;;
73321;SDS011;61549;37.044;22.128;2022-11-21T06:31:09;7.65;;;3.90;;
73321;SDS011;61549;37.044;22.128;2022-11-21T06:33:41;9.65;;;3.75;;
73321;SDS011;61549;37.044;22.128;2022-11-21T06:36:13;9.38;;;3.35;;
73321;SDS011;61549;37.044;22.128;2022-11-21T06:38:40;9.80;;;3.47;;
73321;SDS011;61549;37.044;22.128;2022-11-21T06:41:10;8.13;;;3.33;;
73321;SDS011;61549;37.044;22.128;2022-11-21T06:43:38;8.30;;;2.95;;
73321;SDS011;61549;37.044;22.128;2022-11-21T06:46:04;9.00;;;3.45;;
73321;SDS011;61549;37.044;22.128;2022-11-21T06:48:35;10.35;;;3.63;;
73321;SDS011;61549;37.044;22.128;2022-11-21T06:51:05;9.32;;;3.80;;
73321;SDS011;61549;37.044;22.128;2022-11-21T06:53:35;8.18;;;3.47;;
73321;SDS011;61549;37.044;22.128;2022-11-21T06:56:02;8.63;;;3.45;;
73321;SDS011;61549;37.044;22.128;2022-11-21T06:58:29;8.65;;;3.05;;
73321;SDS011;61549;37.044;22.128;2022-11-21T07:00:55;8.43;;;2.80;;
73321;SDS011;61549;37.044;22.128;2022-11-21T07:03:21;8.45;;;2.72;;
73321;SDS011;61549;37.044;22.128;2022-11-21T07:05:48;10.52;;;3.00;;
73321;SDS011;61549;37.044;22.128;2022-11-21T07:08:16;9.10;;;3.10;;
73321;SDS011;61549;37.044;22.128;2022-11-21T07:10:42;7.35;;;3.55;;
73321;SDS011;61549;37.044;22.128;2022-11-21T07:13:09;8.02;;;3.72;;
73321;SDS011;61549;37.044;22.128;2022-11-21T07:15:48;8.30;;;3.58;;
73321;SDS011;61549;37.044;22.128;2022-11-21T07:18:16;10.40;;;3.83;;
73321;SDS011;61549;37.044;22.128;2022-11-21T07:20:43;9.38;;;3.60;;
73321;SDS011;61549;37.044;22.128;2022-11-21T07:23:09;10.85;;;4.85;;
73321;SDS011;61549;37.044;22.128;2022-11-21T07:25:35;12.13;;;4.03;;
73321;SDS011;61549;37.044;22.128;2022-11-21T07:28:02;11.55;;;4.65;;
73321;SDS011;61549;37.044;22.128;2022-11-21T07:30:29;7.32;;;3.22;;
73321;SDS011;61549;37.044;22.128;2022-11-21T07:32:56;11.63;;;3.88;;
73321;SDS011;61549;37.044;22.128;2022-11-21T07:35:27;10.38;;;4.68;;
73321;SDS011;61549;37.044;22.128;2022-11-21T07:37:53;6.95;;;4.05;;
73321;SDS011;61549;37.044;22.128;2022-11-21T07:40:19;10.93;;;5.85;;
73321;SDS011;61549;37.044;22.128;2022-11-21T07:42:45;6.07;;;1.92;;
73321;SDS011;61549;37.044;22.128;2022-11-21T07:45:12;6.32;;;1.30;;
73321;SDS011;61549;37.044;22.128;2022-11-21T07:47:39;7.07;;;1.40;;
73321;SDS011;61549;37.044;22.128;2022-11-21T07:50:05;6.57;;;1.50;;
73321;SDS011;61549;37.044;22.128;2022-11-21T07:52:32;5.00;;;1.10;;
73321;SDS011;61549;37.044;22.128;2022-11-21T07:54:58;4.95;;;1.17;;
73321;SDS011;61549;37.044;22.128;2022-11-21T07:57:26;6.05;;;1.27;;
73321;SDS011;61549;37.044;22.128;2022-11-21T07:59:53;5.65;;;1.08;;
73321;SDS011;61549;37.044;22.128;2022-11-21T08:02:20;4.55;;;1.42;;
73321;SDS011;61549;37.044;22.128;2022-11-21T08:04:49;5.15;;;1.60;;
73321;SDS011;61549;37.044;22.128;2022-11-21T08:07:17;5.65;;;1.27;;
73321;SDS011;61549;37.044;22.128;2022-11-21T08:09:45;7.30;;;1.30;;
73321;SDS011;61549;37.044;22.128;2022-11-21T08:12:13;7.97;;;1.30;;
73321;SDS011;61549;37.044;22.128;2022-11-21T08:14:39;5.38;;;1.15;;
73321;SDS011;61549;37.044;22.128;2022-11-21T08:17:05;6.65;;;1.40;;
73321;SDS011;61549;37.044;22.128;2022-11-21T08:19:32;11.90;;;6.80;;
73321;SDS011;61549;37.044;22.128;2022-11-21T08:22:00;6.80;;;3.20;;
73321;SDS011;61549;37.044;22.128;2022-11-21T08:24:26;5.38;;;1.30;;
73321;SDS011;61549;37.044;22.128;2022-11-21T08:26:52;5.55;;;1.17;;
73321;SDS011;61549;37.044;22.128;2022-11-21T08:29:18;4.38;;;1.10;;
73321;SDS011;61549;37.044;22.128;2022-11-21T08:31:45;7.00;;;1.30;;
73321;SDS011;61549;37.044;22.128;2022-11-21T08:34:11;4.78;;;2.22;;
73321;SDS011;61549;37.044;22.128;2022-11-21T08:36:38;7.05;;;2.05;;
73321;SDS011;61549;37.044;22.128;2022-11-21T08:39:04;5.53;;;2.08;;
73321;SDS011;61549;37.044;22.128;2022-11-21T08:41:31;5.68;;;1.58;;
73321;SDS011;61549;37.044;22.128;2022-11-21T08:44:15;4.75;;;1.30;;
73321;SDS011;61549;37.044;22.128;2022-11-21T08:46:41;5.47;;;1.30;;
73321;SDS011;61549;37.044;22.128;2022-11-21T08:49:07;7.53;;;2.03;;
73321;SDS011;61549;37.044;22.128;2022-11-21T08:51:33;6.45;;;2.05;;
73321;SDS011;61549;37.044;22.128;2022-11-21T08:54:00;5.90;;;1.75;;
73321;SDS011;61549;37.044;22.128;2022-11-21T08:56:26;6.78;;;2.00;;
73321;SDS011;61549;37.044;22.128;2022-11-21T08:58:53;5.78;;;1.65;;
73321;SDS011;61549;37.044;22.128;2022-11-21T09:01:20;8.70;;;2.08;;
73321;SDS011;61549;37.044;22.128;2022-11-21T09:03:46;11.35;;;2.25;;
73321;SDS011;61549;37.044;22.128;2022-11-21T09:06:12;12.18;;;2.90;;
73321;SDS011;61549;37.044;22.128;2022-11-21T09:08:38;11.20;;;2.35;;
73321;SDS011;61549;37.044;22.128;2022-11-21T09:11:04;16.17;;;2.90;;
73321;SDS011;61549;37.044;22.128;2022-11-21T09:13:31;8.57;;;1.67;;
73321;SDS011;61549;37.044;22.128;2022-11-21T09:15:58;7.32;;;1.60;;
73321;SDS011;61549;37.044;22.128;2022-11-21T09:18:43;7.22;;;1.52;;
73321;SDS011;61549;37.044;22.128;2022-11-21T09:21:15;7.53;;;1.52;;
73321;SDS011;61549;37.044;22.128;2022-11-21T09:23:42;6.20;;;1.38;;
73321;SDS011;61549;37.044;22.128;2022-11-21T09:26:08;6.38;;;1.70;;
73321;SDS011;61549;37.044;22.128;2022-11-21T09:28:35;6.53;;;1.48;;
73321;SDS011;61549;37.044;22.128;2022-11-21T09:31:01;7.80;;;1.88;;
73321;SDS011;61549;37.044;22.128;2022-11-21T09:33:28;7.80;;;1.40;;
73321;SDS011;61549;37.044;22.128;2022-11-21T09:35:58;4.82;;;1.20;;
73321;SDS011;61549;37.044;22.128;2022-11-21T09:38:25;5.50;;;1.15;;
73321;SDS011;61549;37.044;22.128;2022-11-21T09:40:53;7.93;;;1.50;;
73321;SDS011;61549;37.044;22.128;2022-11-21T09:47:02;7.68;;;2.10;;
73321;SDS011;61549;37.044;22.128;2022-11-21T09:49:44;6.63;;;1.90;;
73321;SDS011;61549;37.044;22.128;2022-11-21T09:52:14;4.47;;;1.50;;
73321;SDS011;61549;37.044;22.128;2022-11-21T09:54:48;7.00;;;2.00;;
73321;SDS011;61549;37.044;22.128;2022-11-21T09:57:34;6.50;;;2.00;;
73321;SDS011;61549;37.044;22.128;2022-11-21T10:00:02;10.13;;;2.20;;
73321;SDS011;61549;37.044;22.128;2022-11-21T10:02:36;7.93;;;2.00;;
73321;SDS011;61549;37.044;22.128;2022-11-21T10:05:04;10.30;;;1.80;;
73321;SDS011;61549;37.044;22.128;2022-11-21T10:07:37;5.25;;;1.45;;
73321;SDS011;61549;37.044;22.128;2022-11-21T10:10:11;4.78;;;1.42;;
73321;SDS011;61549;37.044;22.128;2022-11-21T10:26:55;7.63;;;1.70;;
73321;SDS011;61549;37.044;22.128;2022-11-21T10:32:21;6.32;;;1.80;;
73321;SDS011;61549;37.044;22.128;2022-11-21T10:34:49;6.68;;;1.60;;
73321;SDS011;61549;37.044;22.128;2022-11-21T10:40:13;4.10;;;1.80;;
73321;SDS011;61549;37.044;22.128;2022-11-21T10:42:46;3.83;;;1.92;;
73321;SDS011;61549;37.044;22.128;2022-11-21T10:45:22;5.03;;;2.17;;
73321;SDS011;61549;37.044;22.128;2022-11-21T10:47:49;5.13;;;1.40;;
73321;SDS011;61549;37.044;22.128;2022-11-21T10:53:15;2.22;;;1.00;;
73321;SDS011;61549;37.044;22.128;2022-11-21T10:56:10;2.40;;;1.27;;
73321;SDS011;61549;37.044;22.128;2022-11-21T10:58:43;2.67;;;1.20;;
73321;SDS011;61549;37.044;22.128;2022-11-21T11:01:20;2.83;;;1.20;;
73321;SDS011;61549;37.044;22.128;2022-11-21T11:06:39;1.92;;;1.23;;
73321;SDS011;61549;37.044;22.128;2022-11-21T11:09:24;3.05;;;1.42;;
73321;SDS011;61549;37.044;22.128;2022-11-21T11:15:20;2.28;;;1.20;;
73321;SDS011;61549;37.044;22.128;2022-11-21T11:17:51;2.83;;;0.80;;
73321;SDS011;61549;37.044;22.128;2022-11-21T11:20:29;1.90;;;0.93;;
73321;SDS011;61549;37.044;22.128;2022-11-21T11:22:58;3.38;;;1.20;;
73321;SDS011;61549;37.044;22.128;2022-11-21T11:25:24;2.42;;;1.40;;
73321;SDS011;61549;37.044;22.128;2022-11-21T11:27:50;4.28;;;3.67;;
73321;SDS011;61549;37.044;22.128;2022-11-21T11:30:17;3.35;;;1.40;;
73321;SDS011;61549;37.044;22.128;2022-11-21T11:32:44;2.97;;;1.33;;
73321;SDS011;61549;37.044;22.128;2022-11-21T11:37:42;4.07;;;2.00;;
73321;SDS011;61549;37.044;22.128;2022-11-21T11:46:48;2.17;;;1.20;;
73321;SDS011;61549;37.044;22.128;2022-11-21T11:49:39;2.42;;;1.27;;
73321;SDS011;61549;37.044;22.128;2022-11-21T11:52:27;1.45;;;1.05;;
73321;SDS011;61549;37.044;22.128;2022-11-21T11:55:02;2.30;;;1.08;;
73321;SDS011;61549;37.044;22.128;2022-11-21T11:57:32;1.30;;;0.80;;
73321;SDS011;61549;37.044;22.128;2022-11-21T12:00:15;1.48;;;0.80;;
73321;SDS011;61549;37.044;22.128;2022-11-21T12:03:10;1.30;;;0.80;;
73321;SDS011;61549;37.044;22.128;2022-11-21T12:08:37;1.38;;;0.80;;
73321;SDS011;61549;37.044;22.128;2022-11-21T12:11:14;2.08;;;0.70;;
73321;SDS011;61549;37.044;22.128;2022-11-21T12:14:27;4.45;;;1.10;;
73321;SDS011;61549;37.044;22.128;2022-11-21T12:17:32;3.13;;;1.33;;
73321;SDS011;61549;37.044;22.128;2022-11-21T12:20:04;4.32;;;2.58;;
73321;SDS011;61549;37.044;22.128;2022-11-21T12:22:43;4.68;;;3.67;;
73321;SDS011;61549;37.044;22.128;2022-11-21T12:25:13;2.88;;;1.60;;
73321;SDS011;61549;37.044;22.128;2022-11-21T12:27:39;2.13;;;1.52;;
73321;SDS011;61549;37.044;22.128;2022-11-21T12:41:48;3.72;;;1.30;;
73321;SDS011;61549;37.044;22.128;2022-11-21T12:49:50;2.97;;;1.40;;
73321;SDS011;61549;37.044;22.128;2022-11-21T12:52:47;3.03;;;1.60;;
73321;SDS011;61549;37.044;22.128;2022-11-21T12:55:39;2.47;;;1.33;;
73321;SDS011;61549;37.044;22.128;2022-11-21T13:01:00;4.47;;;2.05;;
73321;SDS011;61549;37.044;22.128;2022-11-21T13:06:23;3.65;;;1.10;;
73321;SDS011;61549;37.044;22.128;2022-11-21T13:08:52;2.42;;;1.25;;
73321;SDS011;61549;37.044;22.128;2022-11-21T13:16:57;3.40;;;0.95;;
73321;SDS011;61549;37.044;22.128;2022-11-21T13:25:01;2.10;;;1.20;;
73321;SDS011;61549;37.044;22.128;2022-11-21T13:32:36;5.55;;;1.50;;
73321;SDS011;61549;37.044;22.128;2022-11-21T13:38:07;3.20;;;1.90;;
73321;SDS011;61549;37.044;22.128;2022-11-21T13:40:34;2.33;;;1.77;;
73321;SDS011;61549;37.044;22.128;2022-11-21T13:45:39;2.90;;;2.10;;
73321;SDS011;61549;37.044;22.128;2022-11-21T13:51:12;5.07;;;2.45;;
73321;SDS011;61549;37.044;22.128;2022-11-21T14:00:15;3.55;;;1.45;;
73321;SDS011;61549;37.044;22.128;2022-11-21T14:02:49;3.58;;;1.30;;
73321;SDS011;61549;37.044;22.128;2022-11-21T14:05:57;4.10;;;1.00;;
73321;SDS011;61549;37.044;22.128;2022-11-21T14:08:30;2.17;;;1.15;;
73321;SDS011;61549;37.044;22.128;2022-11-21T14:10:56;3.00;;;0.98;;
73321;SDS011;61549;37.044;22.128;2022-11-21T14:13:29;2.80;;;1.30;;
73321;SDS011;61549;37.044;22.128;2022-11-21T14:16:12;4.30;;;1.63;;
73321;SDS011;61549;37.044;22.128;2022-11-21T14:18:42;4.45;;;1.30;;
73321;SDS011;61549;37.044;22.128;2022-11-21T14:24:35;3.47;;;1.77;;
73321;SDS011;61549;37.044;22.128;2022-11-21T14:26:43;3.25;;;1.73;;
73321;SDS011;61549;37.044;22.128;2022-11-21T14:29:16;6.82;;;1.75;;
73321;SDS011;61549;37.044;22.128;2022-11-21T14:31:46;5.03;;;1.52;;
73321;SDS011;61549;37.044;22.128;2022-11-21T14:34:22;3.38;;;1.52;;
73321;SDS011;61549;37.044;22.128;2022-11-21T14:36:58;4.22;;;1.60;;
73321;SDS011;61549;37.044;22.128;2022-11-21T14:39:27;3.25;;;1.60;;
73321;SDS011;61549;37.044;22.128;2022-11-21T14:41:58;4.47;;;1.90;;
73321;SDS011;61549;37.044;22.128;2022-11-21T14:44:26;5.65;;;1.70;;
73321;SDS011;61549;37.044;22.128;2022-11-21T14:47:04;3.78;;;1.75;;
73321;SDS011;61549;37.044;22.128;2022-11-21T14:49:48;4.40;;;1.90;;
73321;SDS011;61549;37.044;22.128;2022-11-21T14:52:16;4.88;;;1.85;;
73321;SDS011;61549;37.044;22.128;2022-11-21T14:54:55;4.47;;;1.95;;
73321;SDS011;61549;37.044;22.128;2022-11-21T14:57:27;5.63;;;3.17;;
73321;SDS011;61549;37.044;22.128;2022-11-21T14:59:58;5.95;;;2.88;;
73321;SDS011;61549;37.044;22.128;2022-11-21T15:02:25;6.53;;;3.38;;
73321;SDS011;61549;37.044;22.128;2022-11-21T15:04:54;12.35;;;9.45;;
73321;SDS011;61549;37.044;22.128;2022-11-21T15:07:25;6.40;;;3.47;;
73321;SDS011;61549;37.044;22.128;2022-11-21T15:09:53;4.53;;;2.17;;
73321;SDS011;61549;37.044;22.128;2022-11-21T15:17:23;6.88;;;3.10;;
73321;SDS011;61549;37.044;22.128;2022-11-21T15:20:02;5.22;;;3.50;;
73321;SDS011;61549;37.044;22.128;2022-11-21T15:22:38;5.22;;;2.80;;
73321;SDS011;61549;37.044;22.128;2022-11-21T15:27:40;6.00;;;3.33;;
73321;SDS011;61549;37.044;22.128;2022-11-21T15:46:22;5.05;;;2.67;;
73321;SDS011;61549;37.044;22.128;2022-11-21T15:51:17;7.32;;;3.60;;
73321;SDS011;61549;37.044;22.128;2022-11-21T15:53:48;6.55;;;3.20;;
73321;SDS011;61549;37.044;22.128;2022-11-21T15:56:15;5.72;;;3.28;;
73321;SDS011;61549;37.044;22.128;2022-11-21T15:58:42;6.95;;;3.25;;
73321;SDS011;61549;37.044;22.128;2022-11-21T16:01:13;7.68;;;3.50;;
73321;SDS011;61549;37.044;22.128;2022-11-21T16:03:40;9.02;;;3.35;;
73321;SDS011;61549;37.044;22.128;2022-11-21T16:06:06;6.55;;;3.22;;
73321;SDS011;61549;37.044;22.128;2022-11-21T16:08:33;8.07;;;3.80;;
73321;SDS011;61549;37.044;22.128;2022-11-21T16:10:59;7.88;;;3.80;;
73321;SDS011;61549;37.044;22.128;2022-11-21T16:13:25;7.47;;;3.47;;
73321;SDS011;61549;37.044;22.128;2022-11-21T16:15:52;5.80;;;3.58;;
73321;SDS011;61549;37.044;22.128;2022-11-21T16:18:18;9.13;;;5.10;;
73321;SDS011;61549;37.044;22.128;2022-11-21T16:20:44;8.95;;;4.30;;
73321;SDS011;61549;37.044;22.128;2022-11-21T16:23:10;10.23;;;4.25;;
73321;SDS011;61549;37.044;22.128;2022-11-21T16:25:37;9.15;;;5.40;;
73321;SDS011;61549;37.044;22.128;2022-11-21T16:28:18;6.45;;;4.65;;
73321;SDS011;61549;37.044;22.128;2022-11-21T16:30:44;7.50;;;4.78;;
73321;SDS011;61549;37.044;22.128;2022-11-21T16:33:10;8.27;;;4.47;;
73321;SDS011;61549;37.044;22.128;2022-11-21T16:35:39;10.90;;;4.70;;
73321;SDS011;61549;37.044;22.128;2022-11-21T16:38:08;7.63;;;4.05;;
73321;SDS011;61549;37.044;22.128;2022-11-21T16:40:35;9.57;;;4.63;;
73321;SDS011;61549;37.044;22.128;2022-11-21T16:43:08;7.60;;;5.70;;
73321;SDS011;61549;37.044;22.128;2022-11-21T16:45:36;7.60;;;4.95;;
73321;SDS011;61549;37.044;22.128;2022-11-21T16:48:03;6.25;;;3.70;;
73321;SDS011;61549;37.044;22.128;2022-11-21T16:50:30;5.50;;;3.70;;
73321;SDS011;61549;37.044;22.128;2022-11-21T16:52:57;5.00;;;3.40;;
73321;SDS011;61549;37.044;22.128;2022-11-21T16:55:23;4.55;;;3.20;;
73321;SDS011;61549;37.044;22.128;2022-11-21T16:57:49;7.00;;;2.63;;
73321;SDS011;61549;37.044;22.128;2022-11-21T17:00:15;6.03;;;2.70;;